createdAt,value
2018-12-16T00:00:00.856Z,3.50
2018-12-16T00:01:11.004Z,3.50
2018-12-16T00:02:17.976Z,3.60
2018-12-16T00:03:23.713Z,3.60
2018-12-16T00:04:28.735Z,3.60
2018-12-16T00:05:37.104Z,3.60
2018-12-16T00:06:43.654Z,3.60
2018-12-16T00:07:48.751Z,3.60
2018-12-16T00:08:54.111Z,3.60
2018-12-16T00:10:00.402Z,3.60
2018-12-16T00:11:06.348Z,3.60
2018-12-16T00:12:15.157Z,3.60
2018-12-16T00:13:19.531Z,3.60
2018-12-16T00:14:26.089Z,3.60
2018-12-16T00:15:33.368Z,3.60
2018-12-16T00:16:45.782Z,3.60
2018-12-16T00:17:52.428Z,3.60
2018-12-16T00:19:00.765Z,3.60
2018-12-16T00:20:09.028Z,3.60
2018-12-16T00:21:15.264Z,3.60
2018-12-16T00:22:19.980Z,3.60
2018-12-16T00:23:26.936Z,3.60
2018-12-16T00:24:33.579Z,3.60
2018-12-16T00:25:39.003Z,3.60
2018-12-16T00:27:18.185Z,3.60
2018-12-16T00:28:25.142Z,3.60
2018-12-16T00:29:30.836Z,3.60
2018-12-16T00:30:37.903Z,3.60
2018-12-16T00:31:42.032Z,3.60
2018-12-16T00:32:47.570Z,3.60
2018-12-16T00:33:57.535Z,3.60
2018-12-16T00:35:10.818Z,3.60
2018-12-16T00:36:20.359Z,3.60
2018-12-16T00:37:29.273Z,3.60
2018-12-16T00:38:38.171Z,3.60
2018-12-16T00:39:49.430Z,3.60
2018-12-16T00:41:09.813Z,3.60
2018-12-16T00:42:17.357Z,3.60
2018-12-16T00:43:26.578Z,3.60
2018-12-16T00:44:39.077Z,3.60
2018-12-16T00:45:45.694Z,3.60
2018-12-16T00:46:53.429Z,3.60
2018-12-16T00:48:01.272Z,3.60
2018-12-16T00:49:09.312Z,3.60
2018-12-16T00:50:20.272Z,3.60
2018-12-16T00:51:28.467Z,3.60
2018-12-16T00:52:42.481Z,3.70
2018-12-16T00:53:55.420Z,3.70
2018-12-16T00:55:03.715Z,3.70
2018-12-16T00:56:16.868Z,3.70
2018-12-16T00:57:23.184Z,3.70
2018-12-16T00:58:39.873Z,3.70
2018-12-16T00:59:51.988Z,3.70
2018-12-16T01:01:04.162Z,3.70
2018-12-16T01:02:18.363Z,3.70
2018-12-16T01:03:25.799Z,3.70
2018-12-16T01:04:36.556Z,3.70
2018-12-16T01:05:48.654Z,3.70
2018-12-16T01:06:57.543Z,3.70
2018-12-16T01:08:06.048Z,3.70
2018-12-16T01:09:19.969Z,3.70
2018-12-16T01:10:26.426Z,3.70
2018-12-16T01:11:41.496Z,3.70
2018-12-16T01:12:47.572Z,3.70
2018-12-16T01:13:55.949Z,3.70
2018-12-16T01:15:07.096Z,3.80
2018-12-16T01:16:27.673Z,3.80
2018-12-16T01:17:38.712Z,3.80
2018-12-16T01:18:44.588Z,3.80
2018-12-16T01:19:52.288Z,3.80
2018-12-16T01:21:00.501Z,3.80
2018-12-16T01:22:10.154Z,3.80
2018-12-16T01:23:20.375Z,3.80
2018-12-16T01:24:29.805Z,3.80
2018-12-16T01:25:40.964Z,3.80
2018-12-16T01:26:52.215Z,3.80
2018-12-16T01:28:01.222Z,3.80
2018-12-16T01:29:10.377Z,3.80
2018-12-16T01:30:20.827Z,3.80
2018-12-16T01:31:27.214Z,3.80
2018-12-16T01:32:34.460Z,3.80
2018-12-16T01:33:48.950Z,3.80
2018-12-16T01:34:59.663Z,3.80
2018-12-16T01:36:20.585Z,3.80
2018-12-16T01:37:28.244Z,3.80
2018-12-16T01:38:35.610Z,3.80
2018-12-16T01:39:48.376Z,3.80
2018-12-16T01:40:58.268Z,3.80
2018-12-16T01:42:05.645Z,3.80
2018-12-16T01:43:14.360Z,3.80
2018-12-16T01:44:20.693Z,3.80
2018-12-16T01:45:28.197Z,3.90
2018-12-16T01:46:36.599Z,3.90
2018-12-16T01:47:45.517Z,3.80
2018-12-16T01:48:52.282Z,3.80
2018-12-16T01:50:00.987Z,3.80
2018-12-16T01:51:09.391Z,3.80
2018-12-16T01:52:16.993Z,3.80
2018-12-16T01:53:25.129Z,3.80
2018-12-16T01:54:34.710Z,3.80
2018-12-16T01:55:41.783Z,3.80
2018-12-16T01:56:52.734Z,3.80
2018-12-16T01:58:01.816Z,3.70
2018-12-16T01:59:10.051Z,3.70
2018-12-16T02:00:29.396Z,3.70
2018-12-16T02:02:53.386Z,3.70
2018-12-16T02:04:02.915Z,3.70
2018-12-16T02:05:09.679Z,3.70
2018-12-16T02:06:20.028Z,3.70
2018-12-16T02:07:34.204Z,3.70
2018-12-16T02:08:44.430Z,3.70
2018-12-16T02:09:54.697Z,3.70
2018-12-16T02:11:05.314Z,3.60
2018-12-16T02:12:33.562Z,3.60
2018-12-16T02:13:43.827Z,3.60
2018-12-16T02:14:50.316Z,3.50
2018-12-16T02:16:00.998Z,3.50
2018-12-16T02:17:10.243Z,3.50
2018-12-16T02:18:20.614Z,3.50
2018-12-16T02:19:29.222Z,3.50
2018-12-16T02:20:37.203Z,3.50
2018-12-16T02:21:47.382Z,3.40
2018-12-16T02:22:57.048Z,3.30
2018-12-16T02:24:05.888Z,3.30
2018-12-16T02:25:15.403Z,3.30
2018-12-16T02:26:25.095Z,3.20
2018-12-16T02:27:33.772Z,3.20
2018-12-16T02:28:42.183Z,3.20
2018-12-16T02:29:49.549Z,3.20
2018-12-16T02:30:56.938Z,3.20
2018-12-16T02:32:08.310Z,3.20
2018-12-16T02:33:16.406Z,3.20
2018-12-16T02:34:25.014Z,3.20
2018-12-16T02:35:34.387Z,3.20
2018-12-16T02:36:45.093Z,3.20
2018-12-16T02:37:55.085Z,3.30
2018-12-16T02:39:06.305Z,3.30
2018-12-16T02:40:20.553Z,3.30
2018-12-16T02:41:26.596Z,3.30
2018-12-16T02:42:43.225Z,3.30
2018-12-16T02:43:51.590Z,3.30
2018-12-16T02:45:04.607Z,3.30
2018-12-16T02:46:14.239Z,3.30
2018-12-16T02:48:45.375Z,3.30
2018-12-16T02:49:55.315Z,3.30
2018-12-16T02:51:04.984Z,3.30
2018-12-16T02:52:16.157Z,3.30
2018-12-16T02:53:31.173Z,3.20
2018-12-16T02:54:41.873Z,3.20
2018-12-16T02:55:49.412Z,3.20
2018-12-16T02:57:03.425Z,3.10
2018-12-16T02:58:15.961Z,3.10
2018-12-16T02:59:29.879Z,3.10
2018-12-16T03:00:38.386Z,3.10
2018-12-16T03:01:54.723Z,3.10
2018-12-16T03:03:04.817Z,3.10
2018-12-16T03:04:11.486Z,3.00
2018-12-16T03:05:18.765Z,3.00
2018-12-16T03:06:28.032Z,3.00
2018-12-16T03:07:42.728Z,3.00
2018-12-16T03:08:58.463Z,3.00
2018-12-16T03:10:11.950Z,3.00
2018-12-16T03:11:21.255Z,3.00
2018-12-16T03:12:37.691Z,3.00
2018-12-16T03:13:46.609Z,3.00
2018-12-16T03:15:03.752Z,3.00
2018-12-16T03:16:19.643Z,3.00
2018-12-16T03:17:31.425Z,3.00
2018-12-16T03:18:44.777Z,3.00
2018-12-16T03:19:56.369Z,2.90
2018-12-16T03:21:03.498Z,2.90
2018-12-16T03:22:13.366Z,2.90
2018-12-16T03:23:23.715Z,3.00
2018-12-16T03:24:34.028Z,3.00
2018-12-16T03:25:45.514Z,3.00
2018-12-16T03:26:57.695Z,3.00
2018-12-16T03:28:09.745Z,3.00
2018-12-16T03:29:23.715Z,3.10
2018-12-16T03:30:30.518Z,3.10
2018-12-16T03:31:43.676Z,3.10
2018-12-16T03:32:55.360Z,3.10
2018-12-16T03:34:05.726Z,3.10
2018-12-16T03:35:22.338Z,3.10
2018-12-16T03:36:33.743Z,3.10
2018-12-16T03:37:42.244Z,3.00
2018-12-16T03:38:51.265Z,3.00
2018-12-16T03:40:05.304Z,3.00
2018-12-16T03:41:16.896Z,3.00
2018-12-16T03:42:32.173Z,3.00
2018-12-16T03:43:44.969Z,3.00
2018-12-16T03:44:50.920Z,3.00
2018-12-16T03:46:01.364Z,3.00
2018-12-16T03:47:14.356Z,3.00
2018-12-16T03:48:29.831Z,3.00
2018-12-16T03:49:44.097Z,2.90
2018-12-16T03:51:00.018Z,2.90
2018-12-16T03:52:14.001Z,2.90
2018-12-16T03:53:31.225Z,2.90
2018-12-16T03:54:38.413Z,2.90
2018-12-16T03:55:44.025Z,2.90
2018-12-16T03:56:52.005Z,2.90
2018-12-16T03:58:02.189Z,3.00
2018-12-16T03:59:25.546Z,3.00
2018-12-16T04:00:33.639Z,2.90
2018-12-16T04:01:45.283Z,2.90
2018-12-16T04:02:54.295Z,2.90
2018-12-16T04:04:05.573Z,2.90
2018-12-16T04:05:15.218Z,2.90
2018-12-16T04:06:24.847Z,2.90
2018-12-16T04:07:34.346Z,2.90
2018-12-16T04:08:48.393Z,3.00
2018-12-16T04:09:57.721Z,3.00
2018-12-16T04:11:07.168Z,3.00
2018-12-16T04:12:14.436Z,3.00
2018-12-16T04:13:23.973Z,3.00
2018-12-16T04:14:34.221Z,3.00
2018-12-16T04:15:43.717Z,3.00
2018-12-16T04:16:50.921Z,3.00
2018-12-16T04:18:03.387Z,3.00
2018-12-16T04:19:11.790Z,3.00
2018-12-16T04:20:20.637Z,3.00
2018-12-16T04:21:29.506Z,2.90
2018-12-16T04:22:36.693Z,2.90
2018-12-16T04:23:45.029Z,2.90
2018-12-16T04:24:51.387Z,2.90
2018-12-16T04:26:01.793Z,2.90
2018-12-16T04:27:13.735Z,2.90
2018-12-16T04:28:22.361Z,2.90
2018-12-16T04:29:32.157Z,2.90
2018-12-16T04:30:39.864Z,2.80
2018-12-16T04:31:45.990Z,2.80
2018-12-16T04:32:53.389Z,2.80
2018-12-16T04:34:11.519Z,2.80
2018-12-16T04:35:30.474Z,2.80
2018-12-16T04:38:03.990Z,2.80
2018-12-16T04:39:33.573Z,2.80
2018-12-16T04:40:39.927Z,2.80
2018-12-16T04:41:45.532Z,2.80
2018-12-16T04:43:16.449Z,2.80
2018-12-16T04:44:38.520Z,2.80
2018-12-16T04:45:48.408Z,2.80
2018-12-16T04:47:00.750Z,2.80
2018-12-16T04:48:10.567Z,2.80
2018-12-16T04:49:18.375Z,2.80
2018-12-16T04:50:28.622Z,2.80
2018-12-16T04:53:05.398Z,2.80
2018-12-16T04:54:14.261Z,2.80
2018-12-16T04:55:21.166Z,2.80
2018-12-16T04:56:29.506Z,2.90
2018-12-16T04:57:38.666Z,2.90
2018-12-16T04:58:45.649Z,2.90
2018-12-16T04:59:57.452Z,2.90
2018-12-16T05:01:09.280Z,2.90
2018-12-16T05:02:20.583Z,2.90
2018-12-16T05:03:28.872Z,2.90
2018-12-16T05:04:36.576Z,2.90
2018-12-16T05:05:48.476Z,2.90
2018-12-16T05:06:56.017Z,2.90
2018-12-16T05:08:05.477Z,2.90
2018-12-16T05:09:13.689Z,2.90
2018-12-16T05:10:27.571Z,2.90
2018-12-16T05:11:37.226Z,2.90
2018-12-16T05:12:45.168Z,2.90
2018-12-16T05:13:51.774Z,2.90
2018-12-16T05:14:57.941Z,2.90
2018-12-16T05:16:04.591Z,2.90
2018-12-16T05:17:19.013Z,2.90
2018-12-16T05:18:35.345Z,2.90
2018-12-16T05:19:43.684Z,2.90
2018-12-16T05:20:59.735Z,2.90
2018-12-16T05:22:11.620Z,2.90
2018-12-16T05:23:18.201Z,3.00
2018-12-16T05:24:24.861Z,3.00
2018-12-16T05:25:32.185Z,3.00
2018-12-16T05:26:40.620Z,3.00
2018-12-16T05:27:51.035Z,3.00
2018-12-16T05:29:02.956Z,3.00
2018-12-16T05:30:09.439Z,3.00
2018-12-16T05:31:15.814Z,3.00
2018-12-16T05:32:27.040Z,3.00
2018-12-16T05:33:41.351Z,3.00
2018-12-16T05:34:51.243Z,3.00
2018-12-16T05:35:58.849Z,3.00
2018-12-16T05:37:06.620Z,3.00
2018-12-16T05:38:13.047Z,3.00
2018-12-16T05:39:23.703Z,2.90
2018-12-16T05:40:31.082Z,2.90
2018-12-16T05:41:41.973Z,2.90
2018-12-16T05:42:45.361Z,2.90
2018-12-16T05:43:48.818Z,2.90
2018-12-16T05:44:52.189Z,2.90
2018-12-16T05:45:55.649Z,2.90
2018-12-16T05:46:59.102Z,2.90
2018-12-16T05:48:02.494Z,2.90
2018-12-16T05:49:05.891Z,2.90
2018-12-16T05:50:09.440Z,2.90
2018-12-16T05:51:12.834Z,2.90
2018-12-16T05:52:16.243Z,3.00
2018-12-16T05:53:19.648Z,3.00
2018-12-16T05:54:23.110Z,3.00
2018-12-16T05:55:27.939Z,2.90
2018-12-16T05:56:31.555Z,2.90
2018-12-16T05:57:34.941Z,2.90
2018-12-16T05:58:38.318Z,2.90
2018-12-16T05:59:41.749Z,2.90
2018-12-16T06:00:45.104Z,2.90
2018-12-16T06:01:48.490Z,2.90
2018-12-16T06:02:51.894Z,2.90
2018-12-16T06:03:55.269Z,2.90
2018-12-16T06:04:58.722Z,3.00
2018-12-16T06:06:02.199Z,3.00
2018-12-16T06:07:05.587Z,3.00
2018-12-16T06:08:08.978Z,3.00
2018-12-16T06:09:12.349Z,3.00
2018-12-16T06:10:15.768Z,3.00
2018-12-16T06:11:19.159Z,3.00
2018-12-16T06:12:22.586Z,3.00
2018-12-16T06:13:25.993Z,3.00
2018-12-16T06:14:29.475Z,3.00
2018-12-16T06:15:32.883Z,3.00
2018-12-16T06:16:36.262Z,3.00
2018-12-16T06:17:39.665Z,3.00
2018-12-16T06:18:43.054Z,3.00
2018-12-16T06:19:46.469Z,3.00
2018-12-16T06:20:49.895Z,3.00
2018-12-16T06:21:53.283Z,3.00
2018-12-16T06:22:56.663Z,3.00
2018-12-16T06:24:00.062Z,3.00
2018-12-16T06:25:03.452Z,3.00
2018-12-16T06:26:06.885Z,3.00
2018-12-16T06:27:10.281Z,3.00
2018-12-16T06:28:13.657Z,3.00
2018-12-16T06:29:17.106Z,3.00
2018-12-16T06:30:21.435Z,3.00
2018-12-16T06:31:24.830Z,3.00
2018-12-16T06:32:28.352Z,3.00
2018-12-16T06:33:31.736Z,3.00
2018-12-16T06:34:35.123Z,3.00
2018-12-16T06:35:38.518Z,3.00
2018-12-16T06:36:41.934Z,3.00
2018-12-16T06:37:45.302Z,3.00
2018-12-16T06:38:48.669Z,3.10
2018-12-16T06:39:52.054Z,3.10
2018-12-16T06:40:55.437Z,3.10
2018-12-16T06:41:58.863Z,3.10
2018-12-16T06:43:02.247Z,3.10
2018-12-16T06:44:05.634Z,3.10
2018-12-16T06:45:09.085Z,3.10
2018-12-16T06:46:12.467Z,3.00
2018-12-16T06:47:15.862Z,3.00
2018-12-16T06:48:19.290Z,3.10
2018-12-16T06:49:22.649Z,3.10
2018-12-16T06:50:26.033Z,3.10
2018-12-16T06:51:29.394Z,3.10
2018-12-16T06:52:32.814Z,3.10
2018-12-16T06:53:36.203Z,3.10
2018-12-16T06:54:39.574Z,3.10
2018-12-16T06:55:43.409Z,3.10
2018-12-16T06:56:47.154Z,3.10
2018-12-16T06:57:50.566Z,3.10
2018-12-16T06:58:53.951Z,3.10
2018-12-16T06:59:57.358Z,3.10
2018-12-16T07:01:00.726Z,3.10
2018-12-16T07:02:04.121Z,3.10
2018-12-16T07:03:07.865Z,3.10
2018-12-16T07:04:11.311Z,3.10
2018-12-16T07:05:14.800Z,3.10
2018-12-16T07:06:18.207Z,3.10
2018-12-16T07:07:21.604Z,3.10
2018-12-16T07:08:25.057Z,3.10
2018-12-16T07:09:28.438Z,3.10
2018-12-16T07:10:32.070Z,3.10
2018-12-16T07:11:35.550Z,3.10
2018-12-16T07:12:38.960Z,3.10
2018-12-16T07:13:42.362Z,3.10
2018-12-16T07:14:45.723Z,3.10
2018-12-16T07:15:49.122Z,3.10
2018-12-16T07:16:52.633Z,3.10
2018-12-16T07:17:56.190Z,3.10
2018-12-16T07:18:59.674Z,3.10
2018-12-16T07:20:03.086Z,3.10
2018-12-16T07:21:06.491Z,3.10
2018-12-16T07:22:09.875Z,3.10
2018-12-16T07:23:13.255Z,3.10
2018-12-16T07:24:16.672Z,3.10
2018-12-16T07:25:20.145Z,3.10
2018-12-16T07:26:23.634Z,3.10
2018-12-16T07:27:27.031Z,3.10
2018-12-16T07:28:30.522Z,3.10
2018-12-16T07:29:33.925Z,3.10
2018-12-16T07:30:37.332Z,3.10
2018-12-16T07:31:40.731Z,3.10
2018-12-16T07:32:44.205Z,3.10
2018-12-16T07:33:47.591Z,3.10
2018-12-16T07:34:51.093Z,3.10
2018-12-16T07:35:54.612Z,3.10
2018-12-16T07:36:58.090Z,3.10
2018-12-16T07:38:01.494Z,3.10
2018-12-16T07:39:06.985Z,3.20
2018-12-16T07:40:10.422Z,3.20
2018-12-16T07:41:13.943Z,3.20
2018-12-16T07:42:17.460Z,3.20
2018-12-16T07:43:20.915Z,3.20
2018-12-16T07:44:24.375Z,3.20
2018-12-16T07:45:27.899Z,3.20
2018-12-16T07:46:31.279Z,3.20
2018-12-16T07:47:34.670Z,3.20
2018-12-16T07:48:38.182Z,3.20
2018-12-16T07:49:41.548Z,3.20
2018-12-16T07:50:45.239Z,3.20
2018-12-16T07:51:48.643Z,3.30
2018-12-16T07:52:52.158Z,3.30
2018-12-16T07:53:55.547Z,3.30
2018-12-16T07:54:58.927Z,3.30
2018-12-16T07:56:02.334Z,3.30
2018-12-16T07:57:05.739Z,3.30
2018-12-16T07:58:09.139Z,3.30
2018-12-16T07:59:12.614Z,3.30
2018-12-16T08:00:16.007Z,3.30
2018-12-16T08:01:19.432Z,3.30
2018-12-16T08:02:22.806Z,3.30
2018-12-16T08:03:26.228Z,3.30
2018-12-16T08:04:29.687Z,3.30
2018-12-16T08:05:33.084Z,3.30
2018-12-16T08:06:36.915Z,3.30
2018-12-16T08:07:40.301Z,3.30
2018-12-16T08:08:43.766Z,3.30
2018-12-16T08:09:47.167Z,3.30
2018-12-16T08:10:50.581Z,3.30
2018-12-16T08:11:54.003Z,3.30
2018-12-16T08:12:57.473Z,3.30
2018-12-16T08:14:00.863Z,3.30
2018-12-16T08:15:04.546Z,3.30
2018-12-16T08:16:07.946Z,3.30
2018-12-16T08:17:11.373Z,3.30
2018-12-16T08:18:14.770Z,3.30
2018-12-16T08:19:18.337Z,3.30
2018-12-16T08:20:21.802Z,3.30
2018-12-16T08:21:25.196Z,3.30
2018-12-16T08:22:28.593Z,3.30
2018-12-16T08:23:31.983Z,3.30
2018-12-16T08:24:35.375Z,3.40
2018-12-16T08:25:38.772Z,3.40
2018-12-16T08:26:42.158Z,3.40
2018-12-16T08:27:45.575Z,3.40
2018-12-16T08:28:48.963Z,3.40
2018-12-16T08:29:52.357Z,3.50
2018-12-16T08:30:55.740Z,3.50
2018-12-16T08:31:59.133Z,3.50
2018-12-16T08:33:02.667Z,3.50
2018-12-16T08:34:06.062Z,3.40
2018-12-16T08:35:09.446Z,3.50
2018-12-16T08:36:12.884Z,3.50
2018-12-16T08:37:16.264Z,3.50
2018-12-16T08:38:19.670Z,3.40
2018-12-16T08:39:23.087Z,3.40
2018-12-16T08:40:26.479Z,3.50
2018-12-16T08:41:29.882Z,3.50
2018-12-16T08:42:33.296Z,3.50
2018-12-16T08:43:36.812Z,3.50
2018-12-16T08:44:40.255Z,3.50
2018-12-16T08:45:43.713Z,3.50
2018-12-16T08:46:47.092Z,3.50
2018-12-16T08:47:50.518Z,3.50
2018-12-16T08:48:54.004Z,3.50
2018-12-16T08:49:57.394Z,3.40
2018-12-16T08:51:01.977Z,3.40
2018-12-16T08:52:05.615Z,3.40
2018-12-16T08:53:09.002Z,3.50
2018-12-16T08:54:12.436Z,3.50
2018-12-16T08:55:15.825Z,3.50
2018-12-16T08:56:19.216Z,3.50
2018-12-16T08:57:22.616Z,3.50
2018-12-16T08:58:26.005Z,3.50
2018-12-16T08:59:29.422Z,3.50
2018-12-16T09:00:32.942Z,3.50
2018-12-16T09:01:36.329Z,3.60
2018-12-16T09:02:39.872Z,3.60
2018-12-16T09:03:43.391Z,3.60
2018-12-16T09:04:46.799Z,3.50
2018-12-16T09:05:50.206Z,3.50
2018-12-16T09:06:53.618Z,3.50
2018-12-16T09:07:56.999Z,3.50
2018-12-16T09:09:00.723Z,3.50
2018-12-16T09:10:05.662Z,3.50
2018-12-16T09:11:09.086Z,3.60
2018-12-16T09:12:12.581Z,3.60
2018-12-16T09:13:15.963Z,3.60
2018-12-16T09:14:19.503Z,3.60
2018-12-16T09:15:22.914Z,3.60
2018-12-16T09:16:26.341Z,3.60
2018-12-16T09:17:29.810Z,3.70
2018-12-16T09:18:33.231Z,3.70
2018-12-16T09:19:36.617Z,3.70
2018-12-16T09:20:40.052Z,3.70
2018-12-16T09:21:43.447Z,3.70
2018-12-16T09:22:46.813Z,3.70
2018-12-16T09:23:50.195Z,3.70
2018-12-16T09:24:53.582Z,3.80
2018-12-16T09:25:57.029Z,3.70
2018-12-16T09:27:00.587Z,3.70
2018-12-16T09:28:03.995Z,3.70
2018-12-16T09:29:07.388Z,3.80
2018-12-16T09:30:11.997Z,3.80
2018-12-16T09:31:15.381Z,3.80
2018-12-16T09:32:18.775Z,3.80
2018-12-16T09:33:22.167Z,3.80
2018-12-16T09:34:25.541Z,3.80
2018-12-16T09:35:28.940Z,3.80
2018-12-16T09:36:32.362Z,3.80
2018-12-16T09:37:35.726Z,3.90
2018-12-16T09:38:39.198Z,3.90
2018-12-16T09:39:42.599Z,3.90
2018-12-16T09:40:45.983Z,3.90
2018-12-16T09:41:49.407Z,3.90
2018-12-16T09:42:52.782Z,4.00
2018-12-16T09:43:56.162Z,4.00
2018-12-16T09:44:59.571Z,4.00
2018-12-16T09:46:03.077Z,4.00
2018-12-16T09:47:06.492Z,4.00
2018-12-16T09:48:09.866Z,4.10
2018-12-16T09:49:13.245Z,4.10
2018-12-16T09:50:16.643Z,4.10
2018-12-16T09:51:22.499Z,4.20
2018-12-16T09:52:28.664Z,4.20
2018-12-16T09:53:33.468Z,4.20
2018-12-16T09:55:45.630Z,4.20
2018-12-16T09:56:50.867Z,4.20
2018-12-16T09:57:56.107Z,4.30
2018-12-16T09:59:01.368Z,4.30
2018-12-16T10:00:06.427Z,4.40
2018-12-16T10:01:12.423Z,4.40
2018-12-16T10:02:18.198Z,4.40
2018-12-16T10:03:24.693Z,4.40
2018-12-16T10:04:32.330Z,4.40
2018-12-16T10:05:36.651Z,4.40
2018-12-16T10:06:42.460Z,4.50
2018-12-16T10:07:48.418Z,4.50
2018-12-16T10:08:56.794Z,4.50
2018-12-16T10:10:03.569Z,4.50
2018-12-16T10:11:12.073Z,4.50
2018-12-16T10:12:16.769Z,4.50
2018-12-16T10:13:22.276Z,4.60
2018-12-16T10:14:28.006Z,4.60
2018-12-16T10:15:34.774Z,4.60
2018-12-16T10:16:40.165Z,4.60
2018-12-16T10:17:50.920Z,4.60
2018-12-16T10:18:58.794Z,4.60
2018-12-16T10:20:05.450Z,4.60
2018-12-16T10:21:12.571Z,4.60
2018-12-16T10:22:23.272Z,4.60
2018-12-16T10:23:33.881Z,4.70
2018-12-16T10:24:51.207Z,4.60
2018-12-16T10:25:58.754Z,4.60
2018-12-16T10:27:05.136Z,4.70
2018-12-16T10:28:13.078Z,4.60
2018-12-16T10:29:20.370Z,4.60
2018-12-16T10:30:43.777Z,4.60
2018-12-16T10:31:53.475Z,4.60
2018-12-16T10:33:01.871Z,4.60
2018-12-16T10:34:18.008Z,4.70
2018-12-16T10:35:26.227Z,4.70
2018-12-16T10:36:34.448Z,4.70
2018-12-16T10:37:52.785Z,4.70
2018-12-16T10:38:58.051Z,4.70
2018-12-16T10:40:08.004Z,4.70
2018-12-16T10:42:30.480Z,4.70
2018-12-16T10:43:53.022Z,4.70
2018-12-16T10:45:03.481Z,4.70
2018-12-16T10:46:28.881Z,4.70
2018-12-16T10:47:36.876Z,4.80
2018-12-16T10:48:44.112Z,4.80
2018-12-16T10:49:51.224Z,4.90
2018-12-16T10:50:57.860Z,4.90
2018-12-16T10:52:07.566Z,4.80
2018-12-16T10:53:14.396Z,4.90
2018-12-16T10:54:27.034Z,4.80
2018-12-16T10:55:34.980Z,4.80
2018-12-16T10:56:46.556Z,4.80
2018-12-16T10:57:56.109Z,4.80
2018-12-16T10:59:06.401Z,4.80
2018-12-16T11:00:23.665Z,4.80
2018-12-16T11:01:33.144Z,4.80
2018-12-16T11:02:40.622Z,4.80
2018-12-16T11:03:47.505Z,4.80
2018-12-16T11:04:53.721Z,4.90
2018-12-16T11:05:59.586Z,4.90
2018-12-16T11:07:10.440Z,4.90
2018-12-16T11:08:13.832Z,4.80
2018-12-16T11:09:17.206Z,4.80
2018-12-16T11:10:20.605Z,4.80
2018-12-16T11:11:24.004Z,4.80
2018-12-16T11:12:27.413Z,4.80
2018-12-16T11:13:30.850Z,4.80
2018-12-16T11:14:34.267Z,4.80
2018-12-16T11:15:37.653Z,4.80
2018-12-16T11:16:41.033Z,4.80
2018-12-16T11:17:44.491Z,4.80
2018-12-16T11:18:47.879Z,4.80
2018-12-16T11:19:51.277Z,4.80
2018-12-16T11:20:54.723Z,4.80
2018-12-16T11:21:58.131Z,4.80
2018-12-16T11:23:01.555Z,4.80
2018-12-16T11:24:05.119Z,4.80
2018-12-16T11:25:11.433Z,4.80
2018-12-16T11:26:14.819Z,4.80
2018-12-16T11:27:18.199Z,4.80
2018-12-16T11:28:21.874Z,4.80
2018-12-16T11:29:25.277Z,4.70
2018-12-16T11:30:28.674Z,4.70
2018-12-16T11:31:32.083Z,4.70
2018-12-16T11:32:36.554Z,4.70
2018-12-16T11:33:40.194Z,4.60
2018-12-16T11:34:43.579Z,4.60
2018-12-16T11:35:46.998Z,4.60
2018-12-16T11:36:50.454Z,4.60
2018-12-16T11:37:53.843Z,4.60
2018-12-16T11:38:57.325Z,4.50
2018-12-16T11:40:00.777Z,4.60
2018-12-16T11:41:04.217Z,4.50
2018-12-16T11:42:07.636Z,4.60
2018-12-16T11:43:11.018Z,4.60
2018-12-16T11:44:14.444Z,4.60
2018-12-16T11:45:17.862Z,4.60
2018-12-16T11:46:21.270Z,4.60
2018-12-16T11:47:24.650Z,4.60
2018-12-16T11:48:28.229Z,4.60
2018-12-16T11:49:31.625Z,4.60
2018-12-16T11:50:35.052Z,4.60
2018-12-16T11:51:38.640Z,4.60
2018-12-16T11:52:42.010Z,4.60
2018-12-16T11:53:45.378Z,4.60
2018-12-16T11:54:48.799Z,4.60
2018-12-16T11:55:52.173Z,4.60
2018-12-16T11:56:55.607Z,4.60
2018-12-16T11:57:59.041Z,4.60
2018-12-16T11:59:02.531Z,4.60
2018-12-16T12:00:06.237Z,4.60
2018-12-16T12:01:09.666Z,4.60
2018-12-16T12:02:13.107Z,4.60
2018-12-16T12:03:16.529Z,4.60
2018-12-16T12:04:19.926Z,4.60
2018-12-16T12:05:23.344Z,4.60
2018-12-16T12:06:26.766Z,4.60
2018-12-16T12:07:30.150Z,4.60
2018-12-16T12:08:33.546Z,4.60
2018-12-16T12:09:37.001Z,4.70
2018-12-16T12:10:40.570Z,4.70
2018-12-16T12:11:43.958Z,4.70
2018-12-16T12:12:47.432Z,4.70
2018-12-16T12:13:50.938Z,4.70
2018-12-16T12:14:54.325Z,4.70
2018-12-16T12:15:57.891Z,4.70
2018-12-16T12:17:01.258Z,4.70
2018-12-16T12:18:04.646Z,4.70
2018-12-16T12:19:08.040Z,4.70
2018-12-16T12:20:11.510Z,4.70
2018-12-16T12:21:14.943Z,4.70
2018-12-16T12:22:18.526Z,4.70
2018-12-16T12:23:21.909Z,4.70
2018-12-16T12:24:25.386Z,4.70
2018-12-16T12:25:28.854Z,4.70
2018-12-16T12:26:32.255Z,4.80
2018-12-16T12:27:35.625Z,4.80
2018-12-16T12:28:39.201Z,4.80
2018-12-16T12:29:42.620Z,4.80
2018-12-16T12:30:46.011Z,4.80
2018-12-16T12:31:49.481Z,4.80
2018-12-16T12:32:52.859Z,4.80
2018-12-16T12:33:56.267Z,4.80
2018-12-16T12:34:59.661Z,4.80
2018-12-16T12:36:03.059Z,4.70
2018-12-16T12:37:06.618Z,4.80
2018-12-16T12:38:10.058Z,4.70
2018-12-16T12:39:13.442Z,4.70
2018-12-16T12:40:16.851Z,4.80
2018-12-16T12:41:20.239Z,4.70
2018-12-16T12:42:23.670Z,4.70
2018-12-16T12:43:27.103Z,4.70
2018-12-16T12:44:30.496Z,4.70
2018-12-16T12:45:33.863Z,4.70
2018-12-16T12:46:37.271Z,4.70
2018-12-16T12:47:40.682Z,4.70
2018-12-16T12:48:44.144Z,4.70
2018-12-16T12:49:47.526Z,4.70
2018-12-16T12:50:50.934Z,4.70
2018-12-16T12:51:54.314Z,4.70
2018-12-16T12:52:57.737Z,4.70
2018-12-16T12:54:01.143Z,4.70
2018-12-16T12:55:04.931Z,4.70
2018-12-16T12:56:08.332Z,4.60
2018-12-16T12:57:11.742Z,4.60
2018-12-16T12:58:15.159Z,4.60
2018-12-16T12:59:18.543Z,4.70
2018-12-16T13:00:21.933Z,4.70
2018-12-16T13:01:25.327Z,4.70
2018-12-16T13:02:28.707Z,4.70
2018-12-16T13:03:32.517Z,4.70
2018-12-16T13:04:35.911Z,4.70
2018-12-16T13:05:39.328Z,4.70
2018-12-16T13:06:42.851Z,4.70
2018-12-16T13:07:46.282Z,4.70
2018-12-16T13:08:49.695Z,4.80
2018-12-16T13:09:53.087Z,4.70
2018-12-16T13:10:56.491Z,4.70
2018-12-16T13:11:59.878Z,4.80
2018-12-16T13:13:03.330Z,4.80
2018-12-16T13:14:06.822Z,4.80
2018-12-16T13:15:10.218Z,4.80
2018-12-16T13:16:13.640Z,4.80
2018-12-16T13:17:17.042Z,4.80
2018-12-16T13:18:20.479Z,4.80
2018-12-16T13:19:24.142Z,4.80
2018-12-16T13:20:27.505Z,4.80
2018-12-16T13:21:30.882Z,4.80
2018-12-16T13:22:34.315Z,4.90
2018-12-16T13:23:37.709Z,4.90
2018-12-16T13:24:52.783Z,4.90
2018-12-16T13:26:03.532Z,4.90
2018-12-16T13:27:06.917Z,4.80
2018-12-16T13:28:10.302Z,4.90
2018-12-16T13:29:13.703Z,4.90
2018-12-16T13:30:17.230Z,4.90
2018-12-16T13:31:20.623Z,4.90
2018-12-16T13:32:24.033Z,4.90
2018-12-16T13:33:27.436Z,4.90
2018-12-16T13:34:30.839Z,4.90
2018-12-16T13:35:34.261Z,5.00
2018-12-16T13:36:37.650Z,4.90
2018-12-16T13:37:41.051Z,4.90
2018-12-16T13:38:44.451Z,5.00
2018-12-16T13:39:47.833Z,5.00
2018-12-16T13:40:51.287Z,5.00
2018-12-16T13:41:54.713Z,5.00
2018-12-16T13:42:58.119Z,5.00
2018-12-16T13:44:01.503Z,5.00
2018-12-16T13:45:05.961Z,5.00
2018-12-16T13:46:09.528Z,5.00
2018-12-16T13:47:12.919Z,5.00
2018-12-16T13:48:16.318Z,5.00
2018-12-16T13:49:19.709Z,5.10
2018-12-16T13:50:23.118Z,5.10
2018-12-16T13:51:26.549Z,5.10
2018-12-16T13:52:30.050Z,5.10
2018-12-16T13:53:33.441Z,5.10
2018-12-16T13:54:36.894Z,5.10
2018-12-16T13:55:41.058Z,5.10
2018-12-16T13:56:44.727Z,5.10
2018-12-16T13:57:48.398Z,5.10
2018-12-16T13:58:51.763Z,5.10
2018-12-16T13:59:55.185Z,5.10
2018-12-16T14:00:58.678Z,5.10
2018-12-16T14:02:02.188Z,5.10
2018-12-16T14:03:05.620Z,5.10
2018-12-16T14:04:08.989Z,5.10
2018-12-16T14:05:12.374Z,5.10
2018-12-16T14:06:15.814Z,5.10
2018-12-16T14:07:19.268Z,5.10
2018-12-16T14:08:23.137Z,5.10
2018-12-16T14:09:26.526Z,5.10
2018-12-16T14:10:29.917Z,5.10
2018-12-16T14:11:33.295Z,5.00
2018-12-16T14:12:36.873Z,5.10
2018-12-16T14:13:40.279Z,5.10
2018-12-16T14:14:45.136Z,5.10
2018-12-16T14:15:52.321Z,5.10
2018-12-16T14:16:54.091Z,5.20
2018-12-16T14:17:57.506Z,5.20
2018-12-16T14:19:00.941Z,5.20
2018-12-16T14:20:05.291Z,5.20
2018-12-16T14:21:08.679Z,5.20
2018-12-16T14:22:12.226Z,5.30
2018-12-16T14:23:15.730Z,5.30
2018-12-16T14:24:19.092Z,5.30
2018-12-16T14:25:22.548Z,5.30
2018-12-16T14:26:25.990Z,5.20
2018-12-16T14:27:29.384Z,5.20
2018-12-16T14:28:32.847Z,5.20
2018-12-16T14:29:36.231Z,5.30
2018-12-16T14:30:39.636Z,5.20
2018-12-16T14:31:43.050Z,5.20
2018-12-16T14:32:46.455Z,5.20
2018-12-16T14:33:49.937Z,5.20
2018-12-16T14:34:53.442Z,5.30
2018-12-16T14:35:56.963Z,5.30
2018-12-16T14:37:00.363Z,5.20
2018-12-16T14:38:04.186Z,5.30
2018-12-16T14:39:08.298Z,5.20
2018-12-16T14:40:11.714Z,5.20
2018-12-16T14:41:15.141Z,5.20
2018-12-16T14:42:18.558Z,5.20
2018-12-16T14:43:21.963Z,5.20
2018-12-16T14:44:25.372Z,5.30
2018-12-16T14:45:28.828Z,5.20
2018-12-16T14:46:32.250Z,5.30
2018-12-16T14:47:35.654Z,5.20
2018-12-16T14:48:39.078Z,5.20
2018-12-16T14:49:42.559Z,5.20
2018-12-16T14:50:45.943Z,5.20